createdAt,value
2022-07-26T00:00:48.249Z,21.10
2022-07-26T00:03:15.597Z,21.10
2022-07-26T00:05:43.507Z,21.20
2022-07-26T00:08:11.030Z,21.20
2022-07-26T00:10:45.133Z,21.10
2022-07-26T00:13:12.669Z,21.20
2022-07-26T00:15:39.848Z,21.20
2022-07-26T00:18:11.931Z,21.10
2022-07-26T00:20:40.294Z,21.10
2022-07-26T00:23:09.366Z,21.10
2022-07-26T00:25:37.204Z,21.10
2022-07-26T00:28:05.266Z,21.10
2022-07-26T00:30:32.926Z,21.00
2022-07-26T00:33:00.411Z,21.00
2022-07-26T00:35:27.668Z,21.00
2022-07-26T00:37:54.737Z,21.10
2022-07-26T00:40:22.375Z,21.10
2022-07-26T00:42:49.649Z,21.20
2022-07-26T00:45:17.583Z,21.10
2022-07-26T00:47:45.136Z,21.10
2022-07-26T00:50:16.319Z,21.10
2022-07-26T00:52:45.039Z,21.20
2022-07-26T00:55:12.944Z,21.20
2022-07-26T00:57:41.847Z,21.20
2022-07-26T01:00:12.686Z,21.20
2022-07-26T01:02:41.141Z,21.10
2022-07-26T01:05:08.751Z,21.10
2022-07-26T01:07:37.373Z,21.10
2022-07-26T01:10:06.637Z,21.10
2022-07-26T01:12:33.859Z,21.10
2022-07-26T01:15:00.975Z,21.10
2022-07-26T01:17:28.303Z,21.10
2022-07-26T01:19:55.591Z,21.10
2022-07-26T01:22:22.784Z,21.10
2022-07-26T01:24:50.112Z,21.10
2022-07-26T01:27:17.794Z,21.10
2022-07-26T01:29:44.973Z,21.00
2022-07-26T01:32:12.034Z,21.00
2022-07-26T01:34:39.346Z,21.00
2022-07-26T01:37:06.968Z,21.00
2022-07-26T01:39:34.256Z,21.00
2022-07-26T01:42:01.699Z,21.00
2022-07-26T01:44:28.834Z,21.00
2022-07-26T01:46:55.988Z,21.00
2022-07-26T01:49:23.316Z,21.00
2022-07-26T01:51:50.733Z,21.00
2022-07-26T01:54:22.533Z,21.00
2022-07-26T01:56:51.823Z,21.00
2022-07-26T01:59:19.067Z,21.00
2022-07-26T02:01:46.163Z,21.00
2022-07-26T02:04:33.414Z,21.00
2022-07-26T02:07:00.799Z,21.00
2022-07-26T02:09:33.034Z,21.00
2022-07-26T02:12:07.547Z,21.00
2022-07-26T02:14:34.784Z,20.90
2022-07-26T02:17:01.967Z,20.90
2022-07-26T02:19:30.113Z,20.90
2022-07-26T02:21:57.809Z,20.90
2022-07-26T02:24:29.003Z,20.90
2022-07-26T02:26:57.622Z,20.90
2022-07-26T02:29:25.373Z,20.80
2022-07-26T02:31:53.282Z,20.80
2022-07-26T02:34:20.813Z,20.80
2022-07-26T02:36:48.038Z,20.80
2022-07-26T02:39:15.478Z,20.80
2022-07-26T02:41:43.262Z,20.70
2022-07-26T02:44:10.902Z,20.70
2022-07-26T02:46:38.923Z,20.80
2022-07-26T02:49:06.474Z,20.70
2022-07-26T02:51:33.927Z,20.70
2022-07-26T02:54:01.066Z,20.70
2022-07-26T02:56:28.618Z,20.70
2022-07-26T02:58:56.004Z,20.70
2022-07-26T03:01:24.799Z,20.70
2022-07-26T03:03:52.154Z,20.70
2022-07-26T03:06:19.952Z,20.70
2022-07-26T03:08:48.629Z,20.60
2022-07-26T03:11:16.367Z,20.70
2022-07-26T03:13:43.846Z,20.60
2022-07-26T03:16:11.121Z,20.60
2022-07-26T03:18:38.990Z,20.60
2022-07-26T03:21:06.420Z,20.50
2022-07-26T03:23:35.001Z,20.60
2022-07-26T03:26:03.178Z,20.50
2022-07-26T03:28:34.151Z,20.50
2022-07-26T03:31:02.218Z,20.50
2022-07-26T03:33:30.598Z,20.50
2022-07-26T03:35:57.859Z,20.40
2022-07-26T03:38:25.103Z,20.50
2022-07-26T03:40:52.636Z,20.50
2022-07-26T03:43:23.076Z,20.40
2022-07-26T03:45:51.021Z,20.40
2022-07-26T03:48:22.026Z,20.40
2022-07-26T03:50:49.275Z,20.40
2022-07-26T03:53:16.588Z,20.30
2022-07-26T03:56:02.546Z,20.30
2022-07-26T03:58:29.713Z,20.30
2022-07-26T04:00:56.949Z,20.30
2022-07-26T04:03:24.185Z,20.30
2022-07-26T04:05:52.749Z,20.40
2022-07-26T04:08:20.048Z,20.40
2022-07-26T04:10:48.610Z,20.40
2022-07-26T04:13:15.797Z,20.40
2022-07-26T04:15:43.013Z,20.40
2022-07-26T04:18:10.334Z,20.40
2022-07-26T04:20:37.530Z,20.40
2022-07-26T04:23:04.960Z,20.40
2022-07-26T04:25:40.674Z,20.40
2022-07-26T04:28:08.984Z,20.40
2022-07-26T04:30:51.346Z,20.40
2022-07-26T04:33:18.537Z,20.40
2022-07-26T04:35:45.771Z,20.40
2022-07-26T04:38:12.936Z,20.40
2022-07-26T04:40:41.112Z,20.40
2022-07-26T04:43:15.256Z,20.40
2022-07-26T04:45:45.097Z,20.40
2022-07-26T04:48:12.817Z,20.40
2022-07-26T04:50:40.540Z,20.40
2022-07-26T04:53:08.919Z,20.40
2022-07-26T04:55:36.182Z,20.40
2022-07-26T04:58:04.301Z,20.40
2022-07-26T05:00:31.833Z,20.50
2022-07-26T05:03:00.517Z,20.50
2022-07-26T05:05:30.735Z,20.50
2022-07-26T05:08:00.370Z,20.40
2022-07-26T05:10:37.036Z,20.40
2022-07-26T05:13:06.136Z,20.40
2022-07-26T05:15:35.528Z,20.40
2022-07-26T05:18:06.983Z,20.50
2022-07-26T05:20:35.261Z,20.50
2022-07-26T05:23:02.413Z,20.50
2022-07-26T05:25:29.661Z,20.50
2022-07-26T05:27:57.078Z,20.60
2022-07-26T05:30:24.571Z,20.60
2022-07-26T05:32:51.860Z,20.70
2022-07-26T05:35:19.028Z,20.60
2022-07-26T05:37:46.217Z,20.70
2022-07-26T05:40:13.732Z,20.60
2022-07-26T05:42:40.983Z,20.70
2022-07-26T05:45:08.847Z,20.70
2022-07-26T05:47:36.242Z,20.70
2022-07-26T05:50:04.317Z,20.80
2022-07-26T05:52:31.423Z,20.80
2022-07-26T05:54:58.820Z,20.80
2022-07-26T05:57:26.649Z,20.80
2022-07-26T05:59:53.865Z,20.90
2022-07-26T06:02:21.066Z,21.70
2022-07-26T06:04:48.475Z,22.90
2022-07-26T06:07:16.534Z,24.10
2022-07-26T06:09:43.854Z,25.30
2022-07-26T06:12:11.102Z,26.20
2022-07-26T06:14:38.256Z,27.10
2022-07-26T06:17:05.481Z,27.20
2022-07-26T06:19:33.101Z,27.20
2022-07-26T06:22:00.351Z,27.60
2022-07-26T06:24:27.788Z,27.80
2022-07-26T06:27:04.599Z,27.80
2022-07-26T06:29:33.187Z,27.10
2022-07-26T06:32:00.832Z,26.30
2022-07-26T06:34:28.279Z,25.70
2022-07-26T06:36:55.683Z,25.40
2022-07-26T06:39:22.927Z,25.50
2022-07-26T06:41:50.278Z,25.50
2022-07-26T06:44:22.876Z,25.20
2022-07-26T06:46:50.074Z,24.90
2022-07-26T06:49:21.895Z,24.70
2022-07-26T06:51:49.739Z,25.10
2022-07-26T06:54:17.137Z,25.40
2022-07-26T06:56:44.606Z,25.30
2022-07-26T06:59:12.011Z,25.40
2022-07-26T07:01:51.299Z,25.30
2022-07-26T07:04:25.602Z,25.10
2022-07-26T07:06:52.856Z,24.80
2022-07-26T07:09:20.683Z,24.50
2022-07-26T07:11:51.829Z,24.20
2022-07-26T07:14:26.054Z,24.00
2022-07-26T07:16:53.376Z,23.80
2022-07-26T07:19:20.600Z,23.60
2022-07-26T07:21:47.843Z,23.60
2022-07-26T07:24:15.610Z,23.40
2022-07-26T07:26:43.114Z,23.40
2022-07-26T07:29:14.577Z,23.40
2022-07-26T07:31:48.869Z,23.40
2022-07-26T07:34:19.468Z,23.30
2022-07-26T07:36:47.371Z,23.30
2022-07-26T07:39:17.532Z,23.10
2022-07-26T07:41:48.701Z,23.10
2022-07-26T07:44:16.107Z,23.00
2022-07-26T07:46:43.742Z,22.90
2022-07-26T07:49:11.995Z,22.70
2022-07-26T07:51:39.872Z,22.60
2022-07-26T07:54:07.124Z,22.60
2022-07-26T07:56:35.654Z,22.60
2022-07-26T07:59:02.818Z,22.50
2022-07-26T08:01:40.148Z,22.40
2022-07-26T08:04:09.355Z,22.30
2022-07-26T08:06:37.108Z,22.20
2022-07-26T08:09:05.399Z,22.10
2022-07-26T08:11:33.772Z,22.00
2022-07-26T08:14:01.800Z,21.80
2022-07-26T08:16:29.066Z,21.80
2022-07-26T08:18:57.855Z,21.80
2022-07-26T08:21:28.154Z,21.70
2022-07-26T08:23:57.592Z,21.60
2022-07-26T08:26:25.006Z,21.60
2022-07-26T08:29:00.154Z,21.60
2022-07-26T08:31:28.942Z,21.70
2022-07-26T08:33:56.520Z,21.70
2022-07-26T08:36:24.315Z,21.70
2022-07-26T08:38:52.549Z,21.70
2022-07-26T08:41:19.791Z,21.70
2022-07-26T08:43:51.916Z,21.80
2022-07-26T08:46:25.921Z,21.90
2022-07-26T08:48:55.041Z,22.10
2022-07-26T08:51:24.012Z,22.20
2022-07-26T08:53:59.299Z,22.30
2022-07-26T08:56:29.804Z,22.40
2022-07-26T08:58:57.346Z,22.30
2022-07-26T09:01:24.672Z,22.20
2022-07-26T09:03:52.031Z,22.10
2022-07-26T09:06:28.368Z,22.10
2022-07-26T09:09:11.166Z,22.10
2022-07-26T09:11:38.734Z,22.20
2022-07-26T09:14:06.650Z,22.20
2022-07-26T09:16:39.006Z,22.40
2022-07-26T09:19:22.863Z,22.60
2022-07-26T09:21:50.404Z,22.70
2022-07-26T09:24:31.840Z,22.80
2022-07-26T09:27:00.882Z,22.80
2022-07-26T09:29:29.169Z,22.70
2022-07-26T09:32:17.298Z,22.70
2022-07-26T09:34:53.135Z,22.60
2022-07-26T09:37:35.030Z,22.60
2022-07-26T09:40:06.456Z,22.50
2022-07-26T09:42:33.997Z,22.50
2022-07-26T09:45:01.663Z,22.50
2022-07-26T09:47:39.693Z,22.50
2022-07-26T09:50:16.768Z,22.50
2022-07-26T09:53:22.868Z,22.40
2022-07-26T09:55:49.987Z,22.40
2022-07-26T09:58:19.124Z,22.50
2022-07-26T10:00:46.362Z,22.50
2022-07-26T10:03:13.654Z,22.50
2022-07-26T10:05:41.885Z,22.50
2022-07-26T10:08:09.936Z,22.50
2022-07-26T10:11:08.708Z,22.50
2022-07-26T10:13:35.942Z,22.60
2022-07-26T10:16:03.459Z,22.70
2022-07-26T10:18:36.526Z,22.70
2022-07-26T10:21:25.741Z,22.70
2022-07-26T10:23:58.011Z,22.70
2022-07-26T10:26:34.791Z,22.80
2022-07-26T10:29:17.235Z,22.80
2022-07-26T10:31:47.248Z,22.80
2022-07-26T10:34:30.308Z,22.70
2022-07-26T10:37:02.616Z,22.80
2022-07-26T10:39:29.798Z,22.80
2022-07-26T10:42:04.408Z,23.00
2022-07-26T10:44:39.199Z,23.10
2022-07-26T10:47:09.479Z,23.20
2022-07-26T10:49:40.465Z,23.40
2022-07-26T10:52:12.770Z,23.60
2022-07-26T10:55:00.955Z,23.70
2022-07-26T10:57:30.821Z,23.80
2022-07-26T10:59:59.731Z,23.90
2022-07-26T11:02:32.779Z,23.90
2022-07-26T11:05:13.268Z,23.90
2022-07-26T11:07:55.638Z,23.90
2022-07-26T11:10:28.689Z,23.80
2022-07-26T11:13:08.461Z,23.60
2022-07-26T11:15:38.215Z,23.60
2022-07-26T11:18:11.003Z,23.70
2022-07-26T11:20:38.881Z,23.70
2022-07-26T11:23:21.992Z,23.90
2022-07-26T11:26:16.510Z,24.10
2022-07-26T11:28:53.568Z,24.10
2022-07-26T11:31:24.420Z,24.30
2022-07-26T11:34:22.956Z,24.30
2022-07-26T11:36:51.696Z,24.40
2022-07-26T11:39:23.568Z,24.50
2022-07-26T11:41:52.599Z,24.60
2022-07-26T11:44:22.265Z,24.70
2022-07-26T11:46:51.380Z,24.70
2022-07-26T11:49:22.863Z,24.60
2022-07-26T11:52:01.732Z,24.60
2022-07-26T11:54:33.632Z,24.50
2022-07-26T11:57:03.948Z,24.50
2022-07-26T11:59:33.187Z,24.60
2022-07-26T12:02:02.564Z,24.60
2022-07-26T12:04:32.693Z,24.60
2022-07-26T12:07:03.452Z,24.60
2022-07-26T12:09:42.222Z,24.50
2022-07-26T12:12:33.108Z,24.40
2022-07-26T12:15:02.939Z,24.40
2022-07-26T12:17:35.112Z,24.30
2022-07-26T12:20:14.139Z,24.30
2022-07-26T12:22:41.897Z,24.20
2022-07-26T12:25:09.115Z,24.30
2022-07-26T12:27:46.418Z,24.30
2022-07-26T12:30:15.976Z,24.40
2022-07-26T12:32:45.308Z,24.40
2022-07-26T12:35:17.071Z,24.50
2022-07-26T12:37:47.032Z,24.60
2022-07-26T12:40:17.386Z,24.70
2022-07-26T12:42:50.761Z,24.80
2022-07-26T12:45:22.669Z,24.70
2022-07-26T12:47:52.306Z,24.70
2022-07-26T12:50:21.948Z,24.60
2022-07-26T12:52:50.235Z,24.60
2022-07-26T12:55:19.538Z,24.40
2022-07-26T12:57:47.887Z,24.40
2022-07-26T13:00:18.446Z,24.50
2022-07-26T13:02:45.863Z,24.50
2022-07-26T13:05:13.825Z,24.60
2022-07-26T13:07:41.839Z,24.50
2022-07-26T13:12:57.458Z,24.50
2022-07-26T13:15:24.701Z,24.50
2022-07-26T13:18:09.000Z,24.50
2022-07-26T13:20:39.840Z,24.50
2022-07-26T13:23:11.710Z,24.40
2022-07-26T13:25:41.392Z,24.40
2022-07-26T13:28:10.360Z,24.40
2022-07-26T13:30:39.142Z,24.40
2022-07-26T13:33:07.239Z,24.40
2022-07-26T13:35:34.528Z,24.40
2022-07-26T13:38:02.130Z,24.40
2022-07-26T13:40:31.784Z,24.40
2022-07-26T13:42:59.717Z,24.40
2022-07-26T13:45:29.121Z,24.40
2022-07-26T13:47:59.035Z,24.40
2022-07-26T13:50:28.135Z,24.50
2022-07-26T13:52:58.125Z,24.70
2022-07-26T13:55:25.872Z,24.80
2022-07-26T13:57:56.781Z,25.00
2022-07-26T14:00:29.523Z,25.10
2022-07-26T14:03:00.659Z,25.00
2022-07-26T14:05:28.704Z,24.90
2022-07-26T14:07:56.342Z,25.00
2022-07-26T14:10:24.585Z,25.00
2022-07-26T14:12:53.460Z,24.90
2022-07-26T14:15:23.146Z,24.90
2022-07-26T14:17:52.272Z,24.80
2022-07-26T14:20:20.885Z,24.70
2022-07-26T14:22:49.007Z,24.80
2022-07-26T14:25:16.511Z,24.70
2022-07-26T14:27:43.707Z,24.80
2022-07-26T14:30:11.398Z,24.80
2022-07-26T14:32:38.753Z,24.70
2022-07-26T14:35:06.634Z,24.70
2022-07-26T14:37:43.940Z,24.70
2022-07-26T14:40:15.031Z,24.60
2022-07-26T14:42:42.481Z,24.50
2022-07-26T14:45:10.888Z,24.50
2022-07-26T14:47:38.125Z,24.50
2022-07-26T14:50:07.920Z,24.50
2022-07-26T14:52:46.345Z,24.40
2022-07-26T14:55:14.636Z,24.50
2022-07-26T14:57:42.042Z,24.10
2022-07-26T15:00:15.512Z,24.00
2022-07-26T15:02:44.659Z,24.00
2022-07-26T15:05:13.453Z,24.00
2022-07-26T15:07:41.825Z,24.10
2022-07-26T15:10:11.340Z,24.10
2022-07-26T15:12:39.364Z,24.20
2022-07-26T15:15:07.657Z,24.10
2022-07-26T15:17:35.187Z,24.10
2022-07-26T15:20:03.579Z,24.00
2022-07-26T15:22:30.977Z,23.90
2022-07-26T15:24:58.224Z,23.90
2022-07-26T15:27:25.516Z,23.80
2022-07-26T15:29:52.735Z,23.80
2022-07-26T15:32:21.330Z,23.60
2022-07-26T15:34:48.847Z,23.70
2022-07-26T15:37:16.073Z,23.70
2022-07-26T15:39:43.264Z,23.70
2022-07-26T15:42:10.423Z,23.80
2022-07-26T15:44:41.141Z,23.80
2022-07-26T15:47:08.688Z,23.80
2022-07-26T15:49:40.275Z,23.80
2022-07-26T15:52:10.664Z,23.90
2022-07-26T15:54:38.702Z,23.80
2022-07-26T15:57:05.807Z,23.80
2022-07-26T15:59:33.095Z,23.70
2022-07-26T16:02:00.487Z,23.60
2022-07-26T16:04:27.901Z,23.60
2022-07-26T16:06:55.061Z,23.60
2022-07-26T16:09:22.328Z,23.50
2022-07-26T16:11:50.083Z,23.40
2022-07-26T16:14:17.922Z,23.40
2022-07-26T16:16:45.684Z,23.40
2022-07-26T16:19:13.928Z,23.50
2022-07-26T16:21:41.669Z,23.50
2022-07-26T16:24:08.985Z,23.40
2022-07-26T16:26:36.433Z,23.40
2022-07-26T16:29:04.736Z,23.40
2022-07-26T16:31:33.145Z,23.30
2022-07-26T16:34:00.611Z,23.20
2022-07-26T16:36:28.806Z,23.20
2022-07-26T16:38:56.143Z,23.10
2022-07-26T16:41:23.369Z,22.90
2022-07-26T16:43:50.591Z,23.00
2022-07-26T16:46:18.123Z,22.90
2022-07-26T16:48:45.311Z,23.00
2022-07-26T16:51:13.774Z,23.10
2022-07-26T16:53:41.414Z,23.10
2022-07-26T16:56:09.524Z,23.10
2022-07-26T16:58:37.755Z,23.00
2022-07-26T17:01:05.123Z,23.10
2022-07-26T17:03:32.432Z,23.10
2022-07-26T17:06:06.091Z,23.10
2022-07-26T17:08:33.960Z,22.80
2022-07-26T17:11:01.448Z,22.70
2022-07-26T17:13:28.765Z,22.70
2022-07-26T17:15:56.331Z,22.70
2022-07-26T17:18:23.642Z,22.60
2022-07-26T17:20:50.979Z,22.60
2022-07-26T17:23:21.281Z,22.50
2022-07-26T17:25:48.435Z,22.50
2022-07-26T17:28:15.703Z,22.40
2022-07-26T17:30:42.992Z,22.30
2022-07-26T17:33:10.655Z,22.30
2022-07-26T17:35:37.919Z,22.30
2022-07-26T17:38:05.297Z,22.30
2022-07-26T17:40:33.807Z,22.20
2022-07-26T17:43:01.131Z,22.10
2022-07-26T17:45:28.525Z,22.10
2022-07-26T17:47:55.957Z,22.00
2022-07-26T17:50:38.865Z,22.00
2022-07-26T17:53:06.472Z,21.90
2022-07-26T17:55:33.789Z,21.90
2022-07-26T17:58:00.931Z,21.90
2022-07-26T18:00:28.796Z,21.80
2022-07-26T18:02:56.789Z,21.80
2022-07-26T18:05:29.983Z,21.70
2022-07-26T18:08:00.174Z,21.70
2022-07-26T18:10:28.245Z,21.70
2022-07-26T18:12:55.714Z,21.60
2022-07-26T18:15:22.991Z,21.60
2022-07-26T18:17:50.331Z,21.50
2022-07-26T18:20:17.567Z,21.50
2022-07-26T18:22:45.753Z,21.50
2022-07-26T18:25:17.381Z,21.50
2022-07-26T18:27:44.601Z,21.50
2022-07-26T18:30:11.997Z,21.40
2022-07-26T18:32:39.166Z,21.40
2022-07-26T18:35:06.551Z,21.30
2022-07-26T18:37:33.844Z,21.30
2022-07-26T18:40:01.032Z,21.20
2022-07-26T18:42:28.227Z,21.20
2022-07-26T18:44:55.605Z,21.20
2022-07-26T18:47:23.135Z,21.10
2022-07-26T18:49:50.746Z,21.10
2022-07-26T18:52:28.666Z,21.10
2022-07-26T18:55:06.935Z,21.00
2022-07-26T18:57:38.958Z,20.90
2022-07-26T19:00:15.736Z,20.90
2022-07-26T19:02:44.503Z,20.80
2022-07-26T19:05:11.960Z,20.70
2022-07-26T19:07:39.560Z,20.70
2022-07-26T19:10:09.559Z,20.70
2022-07-26T19:12:37.441Z,20.60
2022-07-26T19:15:06.476Z,20.60
2022-07-26T19:17:34.377Z,20.50
2022-07-26T19:20:02.024Z,20.40
2022-07-26T19:22:30.403Z,20.20
2022-07-26T19:24:58.011Z,20.20
2022-07-26T19:27:25.534Z,20.10
2022-07-26T19:29:52.715Z,20.10
2022-07-26T19:32:19.924Z,20.00
2022-07-26T19:34:47.229Z,20.00
2022-07-26T19:37:21.109Z,20.00
2022-07-26T19:39:49.103Z,20.00
2022-07-26T19:42:17.061Z,19.90
2022-07-26T19:44:45.737Z,19.90
2022-07-26T19:47:14.245Z,19.90
2022-07-26T19:49:41.854Z,19.80
2022-07-26T19:52:11.741Z,19.70
2022-07-26T19:54:39.598Z,19.70
2022-07-26T19:57:08.031Z,19.70
2022-07-26T19:59:35.323Z,19.60
2022-07-26T20:02:03.059Z,19.60
2022-07-26T20:04:30.254Z,19.60
2022-07-26T20:06:57.495Z,19.50
2022-07-26T20:09:24.759Z,19.50
2022-07-26T20:11:52.042Z,19.40
2022-07-26T20:14:20.165Z,19.50
2022-07-26T20:16:50.525Z,19.40
2022-07-26T20:19:21.318Z,19.40
2022-07-26T20:21:48.772Z,19.40
2022-07-26T20:24:15.884Z,19.30
2022-07-26T20:26:43.147Z,19.30
2022-07-26T20:29:11.590Z,19.20
2022-07-26T20:31:39.025Z,19.20
2022-07-26T20:34:06.797Z,19.20
2022-07-26T20:36:33.891Z,19.20
2022-07-26T20:39:01.997Z,19.10
2022-07-26T20:41:33.736Z,19.20
2022-07-26T20:44:01.437Z,19.10
2022-07-26T20:46:28.738Z,19.00
2022-07-26T20:48:56.326Z,19.00
2022-07-26T20:51:23.664Z,19.00
2022-07-26T20:53:50.799Z,18.90
2022-07-26T20:56:17.976Z,18.90
2022-07-26T20:58:45.086Z,18.90
2022-07-26T21:01:13.896Z,18.80
2022-07-26T21:03:41.503Z,18.80
2022-07-26T21:06:09.021Z,18.80
2022-07-26T21:08:36.576Z,18.80
2022-07-26T21:11:04.194Z,18.80
2022-07-26T21:13:34.129Z,18.80
2022-07-26T21:16:01.224Z,18.80
2022-07-26T21:18:32.862Z,18.80
2022-07-26T21:21:01.616Z,18.80
2022-07-26T21:23:28.833Z,18.80
2022-07-26T21:26:00.273Z,18.80
2022-07-26T21:28:28.466Z,18.80
2022-07-26T21:30:55.784Z,18.70
2022-07-26T21:33:23.001Z,18.70
2022-07-26T21:35:50.240Z,18.70
2022-07-26T21:38:17.484Z,18.70
2022-07-26T21:40:44.776Z,18.60
2022-07-26T21:43:11.983Z,18.60
2022-07-26T21:45:39.576Z,18.60
2022-07-26T21:48:07.167Z,18.60
2022-07-26T21:50:34.676Z,18.60
2022-07-26T21:53:01.911Z,18.60
2022-07-26T21:55:29.236Z,18.60
2022-07-26T21:57:56.323Z,18.60
2022-07-26T22:00:23.712Z,18.50
2022-07-26T22:02:51.122Z,18.50
2022-07-26T22:05:37.311Z,18.40
2022-07-26T22:08:12.966Z,18.40
2022-07-26T22:10:44.690Z,18.40
2022-07-26T22:13:14.221Z,18.50
2022-07-26T22:15:41.811Z,18.40
2022-07-26T22:18:09.996Z,18.40
2022-07-26T22:20:37.463Z,18.40
2022-07-26T22:23:09.711Z,18.40
2022-07-26T22:25:37.861Z,18.30
2022-07-26T22:28:06.658Z,18.30
2022-07-26T22:30:33.868Z,18.30
2022-07-26T22:33:02.661Z,18.30
2022-07-26T22:35:35.000Z,18.30
2022-07-26T22:38:09.153Z,18.30
2022-07-26T22:40:37.550Z,18.30
2022-07-26T22:43:05.611Z,18.40
2022-07-26T22:45:33.811Z,18.40
2022-07-26T22:48:03.115Z,18.40
2022-07-26T22:50:31.248Z,18.30
2022-07-26T22:53:00.933Z,18.30
2022-07-26T22:55:28.585Z,18.20
2022-07-26T22:57:55.736Z,18.20
2022-07-26T23:00:23.621Z,18.20
2022-07-26T23:02:50.940Z,18.10
2022-07-26T23:05:18.097Z,18.10
2022-07-26T23:07:47.966Z,18.10
2022-07-26T23:10:16.588Z,18.00
2022-07-26T23:12:44.168Z,18.00
2022-07-26T23:15:12.201Z,17.90
2022-07-26T23:17:39.882Z,17.80
2022-07-26T23:20:08.880Z,17.90
2022-07-26T23:22:36.229Z,17.80
2022-07-26T23:25:03.873Z,17.80
2022-07-26T23:27:31.099Z,17.80
2022-07-26T23:29:58.229Z,17.80
2022-07-26T23:32:25.412Z,17.70
2022-07-26T23:34:52.508Z,17.70
2022-07-26T23:37:20.055Z,17.70
2022-07-26T23:39:47.210Z,17.70
2022-07-26T23:42:14.335Z,17.60
2022-07-26T23:44:41.571Z,17.60
2022-07-26T23:47:08.826Z,17.50
2022-07-26T23:49:35.994Z,17.50
2022-07-26T23:52:03.299Z,17.40
2022-07-26T23:54:30.559Z,17.50
2022-07-26T23:56:57.686Z,17.40
2022-07-26T23:59:24.819Z,17.40
